Time;durP1;ratioP1;P1;durP2;ratioP2;P2;SDS_P1;SDS_P2;PMS_P1;PMS_P2;Temp;Humidity;BMP_temperature;BMP_pressure;BME280_temperature;BME280_humidity;BME280_pressure;Samples;Min_cycle;Max_cycle;Signal;HPM_P1;HPM_P2
2022/08/10 00:00:22;;;;;;;2.27;1.50;;;;;;;21.89;40.69;98733.97;5073595;28;20584;-69
2022/08/10 00:02:57;;;;;;;1.77;1.67;;;;;;;21.84;41.06;98725.84;5073878;28;20192;-69
2022/08/10 00:05:25;;;;;;;4.03;2.00;;;;;;;21.72;41.83;98735.38;5074370;28;20288;-69
2022/08/10 00:07:52;;;;;;;1.73;1.60;;;;;;;21.63;41.65;98726.16;5074504;28;20209;-69
2022/08/10 00:10:22;;;;;;;2.10;1.63;;;;;;;21.52;41.88;98735.38;5073632;28;20319;-69
2022/08/10 00:12:48;;;;;;;3.30;1.80;;;;;;;21.45;42.52;98730.25;5073523;28;20208;-69
2022/08/10 00:15:17;;;;;;;1.50;1.40;;;;;;;21.36;43.08;98737.28;5073790;28;20288;-69
2022/08/10 00:17:43;;;;;;;1.73;1.50;;;;;;;21.26;42.84;98729.16;5073745;28;20201;-69
2022/08/10 00:20:12;;;;;;;3.30;1.60;;;;;;;21.20;42.97;98729.44;5073615;28;20247;-69
2022/08/10 00:22:38;;;;;;;3.03;1.40;;;;;;;21.17;43.15;98728.09;5073682;28;20291;-69
2022/08/10 00:25:06;;;;;;;3.60;1.60;;;;;;;21.14;42.64;98742.16;5073289;28;20204;-69
2022/08/10 00:27:34;;;;;;;2.80;1.50;;;;;;;21.03;42.83;98734.31;5073308;28;20655;-69
2022/08/10 00:30:00;;;;;;;1.60;1.50;;;;;;;20.97;43.56;98738.88;5073158;28;20323;-69
2022/08/10 00:32:26;;;;;;;1.50;1.30;;;;;;;20.95;43.89;98732.13;5073575;28;20295;-69
2022/08/10 00:34:53;;;;;;;1.70;1.60;;;;;;;20.85;44.44;98729.38;5073555;28;20629;-69
2022/08/10 00:37:20;;;;;;;3.17;1.87;;;;;;;20.79;44.87;98731.25;5073496;28;20208;-69
2022/08/10 00:39:47;;;;;;;1.70;1.60;;;;;;;20.84;43.84;98727.78;5072863;28;20312;-69
2022/08/10 00:42:15;;;;;;;2.60;1.60;;;;;;;20.81;43.69;98729.13;5073389;28;20200;-69
2022/08/10 00:44:44;;;;;;;3.57;1.43;;;;;;;20.77;43.95;98727.19;5073390;28;20287;-69
2022/08/10 00:47:13;;;;;;;2.77;1.50;;;;;;;20.75;44.21;98726.66;5073014;28;20570;-69
2022/08/10 00:49:40;;;;;;;3.07;1.50;;;;;;;20.76;44.12;98725.59;5072840;28;20259;-69
2022/08/10 00:52:09;;;;;;;1.80;1.53;;;;;;;20.70;44.18;98718.56;5071864;28;20220;-69
2022/08/10 00:54:36;;;;;;;1.93;1.53;;;;;;;20.70;44.71;98723.97;5072924;28;20699;-69
2022/08/10 00:57:05;;;;;;;1.50;1.40;;;;;;;20.67;45.21;98724.50;5073209;28;20227;-69
2022/08/10 00:59:32;;;;;;;1.50;1.40;;;;;;;20.65;44.84;98722.03;5072859;28;20224;-69
2022/08/10 01:02:00;;;;;;;3.50;1.80;;;;;;;20.71;44.61;98726.38;5073256;28;20299;-69
2022/08/10 01:04:27;;;;;;;3.70;1.50;;;;;;;20.66;45.21;98720.16;5072880;28;20682;-69
2022/08/10 01:07:10;;;;;;;3.30;1.57;;;;;;;20.69;44.68;98716.91;5072812;28;20734;-69
2022/08/10 01:09:42;;;;;;;2.30;1.47;;;;;;;20.65;44.65;98713.13;5072786;28;20248;-69
2022/08/10 01:12:14;;;;;;;2.20;1.30;;;;;;;20.58;45.04;98726.09;5073215;28;20192;-69
2022/08/10 01:14:55;;;;;;;1.80;1.50;;;;;;;20.54;45.25;98725.81;5072844;28;20277;-69
2022/08/10 01:17:48;;;;;;;2.67;1.57;;;;;;;20.44;45.96;98725.75;5071824;28;20193;-69
2022/08/10 01:20:29;;;;;;;1.50;1.30;;;;;;;20.44;45.61;98724.97;5073124;28;20224;-69
2022/08/10 01:23:10;;;;;;;2.13;1.63;;;;;;;20.43;45.94;98723.34;5073104;28;20296;-69
2022/08/10 01:26:14;;;;;;;1.60;1.47;;;;;;;20.44;45.86;98722.28;5072984;28;20200;-69
2022/08/10 01:29:18;;;;;;;2.30;1.40;;;;;;;20.44;45.97;98725.75;5072612;28;20672;-69
2022/08/10 01:31:50;;;;;;;1.60;1.50;;;;;;;20.36;46.61;98723.59;5072878;28;20216;-69
2022/08/10 01:34:29;;;;;;;2.37;1.63;;;;;;;20.34;46.23;98728.44;5072993;28;20189;-69
2022/08/10 01:37:02;;;;;;;1.47;1.37;;;;;;;20.31;47.04;98720.88;5072932;28;20296;-69
2022/08/10 01:39:33;;;;;;;1.53;1.40;;;;;;;20.23;47.06;98723.28;5072457;28;20311;-69
2022/08/10 01:42:02;;;;;;;2.00;1.80;;;;;;;20.23;47.16;98723.28;5072931;28;20221;-69
2022/08/10 01:44:37;;;;;;;2.33;1.30;;;;;;;20.29;46.74;98723.03;5072540;28;20215;-69
2022/08/10 01:50:10;;;;;;;2.30;1.40;;;;;;;20.22;47.12;98724.34;5020878;28;20238;-69
2022/08/10 01:52:41;;;;;;;2.20;1.70;;;;;;;20.21;47.12;98726.22;5076289;28;20212;-69
2022/08/10 01:55:12;;;;;;;1.83;1.37;;;;;;;20.22;47.54;98724.34;5076131;28;20192;-69
2022/08/10 01:57:42;;;;;;;3.67;1.50;;;;;;;20.16;47.85;98726.22;5075188;28;20559;-69
2022/08/10 02:00:09;;;;;;;1.40;1.30;;;;;;;20.13;47.49;98723.22;5076102;28;20303;-69
2022/08/10 02:02:37;;;;;;;3.07;1.40;;;;;;;20.12;47.77;98727.81;5074725;28;20650;-69
2022/08/10 02:05:06;;;;;;;1.50;1.40;;;;;;;20.04;48.28;98731.00;5075016;28;20295;-69
2022/08/10 02:07:35;;;;;;;2.47;1.50;;;;;;;19.92;48.64;98735.78;5075870;28;20578;-69
2022/08/10 02:10:06;;;;;;;2.97;1.57;;;;;;;19.88;48.63;98736.56;5075967;28;20323;-69
2022/08/10 02:12:34;;;;;;;2.50;1.60;;;;;;;19.85;49.13;98724.41;5075863;28;20275;-69
2022/08/10 02:15:12;;;;;;;4.13;1.70;;;;;;;19.81;49.76;98722.50;5074863;28;20189;-69
2022/08/10 02:17:44;;;;;;;1.33;1.30;;;;;;;19.73;49.46;98730.00;5076014;28;20188;-69
2022/08/10 02:20:19;;;;;;;1.60;1.50;;;;;;;19.69;49.51;98725.41;5075549;28;20771;-69
2022/08/10 02:22:52;;;;;;;1.70;1.60;;;;;;;19.62;49.61;98729.41;5075924;28;20283;-69
2022/08/10 02:25:21;;;;;;;2.17;1.47;;;;;;;19.56;50.07;98725.88;5075482;28;20188;-69
2022/08/10 02:27:49;;;;;;;1.70;1.60;;;;;;;19.58;49.71;98721.00;5075455;28;20209;-69
2022/08/10 02:30:17;;;;;;;2.67;1.70;;;;;;;19.54;50.04;98723.41;5075565;28;20319;-69
2022/08/10 02:32:45;;;;;;;1.63;1.40;;;;;;;19.55;50.04;98727.75;5075404;28;20205;-69
2022/08/10 02:35:15;;;;;;;1.50;1.40;;;;;;;19.48;49.89;98729.03;5076174;28;20204;-69
2022/08/10 02:37:46;;;;;;;1.40;1.30;;;;;;;19.54;49.62;98728.81;5075541;28;20246;-69
2022/08/10 02:40:13;;;;;;;2.07;1.40;;;;;;;19.63;49.60;98731.03;5075174;28;20630;-69
2022/08/10 02:43:01;;;;;;;2.60;1.57;;;;;;;19.71;49.54;98728.66;5075501;28;20291;-69
2022/08/10 02:45:42;;;;;;;2.40;1.57;;;;;;;19.69;49.54;98728.91;5075143;28;20189;-69
2022/08/10 02:48:21;;;;;;;2.00;1.80;;;;;;;19.73;49.28;98735.41;5075082;28;20189;-69
2022/08/10 02:51:26;;;;;;;2.07;1.40;;;;;;;19.63;50.00;98739.13;5075209;28;20235;-69
2022/08/10 02:54:01;;;;;;;1.60;1.50;;;;;;;19.63;50.15;98735.34;5074071;28;20184;-69
2022/08/10 02:56:54;;;;;;;1.87;1.67;;;;;;;19.66;49.99;98731.31;5075140;28;20226;-69
2022/08/10 02:59:31;;;;;;;3.93;1.70;;;;;;;19.77;49.72;98731.13;5075075;28;20278;-69
2022/08/10 03:02:02;;;;;;;2.37;1.70;;;;;;;19.72;49.79;98732.16;5074384;28;20191;-69
2022/08/10 03:04:49;;;;;;;2.03;1.73;;;;;;;19.66;49.74;98728.63;5074967;28;20271;-69
2022/08/10 03:07:20;;;;;;;2.63;1.70;;;;;;;19.77;49.29;98729.50;5074611;28;20258;-69
2022/08/10 03:09:50;;;;;;;2.20;1.73;;;;;;;19.72;49.60;98732.16;5074491;28;20666;-69
2022/08/10 03:12:18;;;;;;;3.80;1.80;;;;;;;19.61;50.05;98725.91;5074522;28;20254;-69
2022/08/10 03:14:46;;;;;;;2.67;1.90;;;;;;;19.62;50.05;98726.72;5074323;28;20303;-69
2022/08/10 03:17:13;;;;;;;1.70;1.47;;;;;;;19.59;49.94;98718.06;5074413;28;20307;-69
2022/08/10 03:19:41;;;;;;;4.27;1.70;;;;;;;19.53;50.20;98729.06;5074427;28;20318;-69
2022/08/10 03:22:09;;;;;;;4.37;1.77;;;;;;;19.56;50.53;98723.16;5073476;28;20196;-69
2022/08/10 03:24:37;;;;;;;2.97;1.90;;;;;;;19.54;50.18;98731.50;5074587;28;20302;-69
2022/08/10 03:27:05;;;;;;;1.77;1.60;;;;;;;19.50;50.40;98727.72;5074267;28;20771;-69
2022/08/10 03:29:32;;;;;;;1.90;1.80;;;;;;;19.58;50.15;98729.94;5074022;28;20772;-69
2022/08/10 03:32:00;;;;;;;4.70;1.93;;;;;;;19.57;50.16;98734.78;5074191;28;20228;-69
2022/08/10 03:34:27;;;;;;;3.90;1.90;;;;;;;19.55;50.29;98732.34;5073864;28;20299;-69
2022/08/10 03:36:54;;;;;;;3.17;1.90;;;;;;;19.62;50.05;98734.81;5074152;28;20288;-69
2022/08/10 03:39:20;;;;;;;2.70;1.80;;;;;;;19.52;50.53;98727.44;5074126;28;20311;-69
2022/08/10 03:41:50;;;;;;;3.87;1.93;;;;;;;19.43;50.87;98729.00;5074145;28;20295;-69
2022/08/10 03:44:24;;;;;;;2.37;1.87;;;;;;;19.36;51.30;98733.81;5073682;28;20213;-69
2022/08/10 03:46:52;;;;;;;3.90;1.67;;;;;;;19.24;52.09;98731.31;5073682;28;20315;-69
2022/08/10 03:49:20;;;;;;;2.80;1.97;;;;;;;19.06;52.02;98725.47;5074109;28;20332;-69
2022/08/10 03:51:50;;;;;;;2.70;1.87;;;;;;;19.07;51.88;98735.97;5072781;28;20221;-69
2022/08/10 03:54:17;;;;;;;2.00;1.80;;;;;;;19.17;51.68;98736.06;5073679;28;20695;-69
2022/08/10 03:56:45;;;;;;;3.23;2.00;;;;;;;19.27;51.34;98738.06;5073843;28;20232;-69
2022/08/10 03:59:14;;;;;;;3.43;1.83;;;;;;;19.44;50.58;98734.16;5073585;28;20224;-69
2022/08/10 04:01:44;;;;;;;4.73;1.90;;;;;;;19.42;51.00;98735.47;5073237;28;20734;-69
2022/08/10 04:04:12;;;;;;;2.10;1.60;;;;;;;19.46;50.68;98733.91;5073391;28;20208;-69
2022/08/10 04:06:38;;;;;;;3.47;1.87;;;;;;;19.47;51.03;98743.59;5073342;28;20746;-68
2022/08/10 04:09:05;;;;;;;2.97;1.83;;;;;;;19.15;51.97;98749.00;5072425;28;20225;-68
2022/08/10 04:11:31;;;;;;;1.87;1.67;;;;;;;18.66;53.72;98750.16;5073600;28;20331;-68
2022/08/10 04:13:58;;;;;;;3.40;1.70;;;;;;;18.61;53.89;98752.78;5072521;28;20645;-68
2022/08/10 04:16:24;;;;;;;2.20;1.90;;;;;;;18.47;54.10;98756.94;5073677;28;20208;-68
2022/08/10 04:18:51;;;;;;;2.97;2.20;;;;;;;18.55;54.20;98753.78;5073448;28;20315;-68
2022/08/10 04:21:23;;;;;;;2.80;2.00;;;;;;;18.41;54.60;98755.22;5073135;28;20562;-68
2022/08/10 04:23:51;;;;;;;2.80;1.77;;;;;;;18.35;55.05;98752.72;5073158;28;20655;-68
2022/08/10 04:26:18;;;;;;;2.77;2.00;;;;;;;18.35;55.17;98758.13;5073037;28;20643;-68
2022/08/10 04:28:45;;;;;;;3.43;2.20;;;;;;;18.25;55.00;98760.66;5072847;28;20226;-68
2022/08/10 04:31:15;;;;;;;2.97;2.20;;;;;;;18.24;55.33;98767.13;5073115;28;20770;-68
2022/08/10 04:33:46;;;;;;;2.83;2.10;;;;;;;18.30;55.07;98764.25;5073008;28;20659;-68
2022/08/10 04:36:15;;;;;;;3.10;1.90;;;;;;;18.24;55.27;98765.22;5072154;28;20188;-68
2022/08/10 04:38:43;;;;;;;4.67;2.07;;;;;;;18.33;55.03;98760.25;5072011;28;20205;-68
2022/08/10 04:41:10;;;;;;;2.53;1.90;;;;;;;18.31;54.88;98765.88;5072873;28;20291;-68
2022/08/10 04:43:37;;;;;;;2.30;2.10;;;;;;;18.37;55.02;98764.88;5072861;28;20293;-68
2022/08/10 04:46:04;;;;;;;3.30;2.00;;;;;;;18.35;55.00;98769.72;5071780;28;20204;-68
2022/08/10 04:48:30;;;;;;;3.37;1.97;;;;;;;18.39;55.06;98770.84;5072863;28;20557;-68
2022/08/10 04:50:57;;;;;;;4.73;2.20;;;;;;;18.40;55.13;98772.47;5072884;28;20587;-68
2022/08/10 04:53:23;;;;;;;3.57;2.23;;;;;;;18.38;55.13;98769.22;5072994;28;20211;-68
2022/08/10 04:55:49;;;;;;;3.47;2.33;;;;;;;18.36;55.11;98765.13;5072665;28;20685;-68
2022/08/10 04:58:16;;;;;;;3.33;2.00;;;;;;;18.40;54.98;98769.78;5073038;28;20204;-68
2022/08/10 05:00:42;;;;;;;6.07;2.30;;;;;;;18.40;55.23;98771.63;5072417;28;20722;-68
2022/08/10 05:03:09;;;;;;;3.57;2.10;;;;;;;18.36;55.26;98767.81;5072459;28;20667;-68
2022/08/10 05:05:35;;;;;;;4.20;2.30;;;;;;;18.48;54.87;98765.81;5072495;28;20200;-68
2022/08/10 05:08:01;;;;;;;3.70;2.13;;;;;;;18.38;54.79;98769.22;5072739;28;20291;-68
2022/08/10 05:10:28;;;;;;;2.70;2.10;;;;;;;18.41;55.04;98768.69;5072662;28;20621;-68
2022/08/10 05:12:54;;;;;;;5.30;2.50;;;;;;;18.48;55.04;98757.75;5072270;28;20217;-68
2022/08/10 05:15:23;;;;;;;3.93;2.03;;;;;;;18.53;55.15;98769.38;5072647;28;20276;-68
2022/08/10 05:17:50;;;;;;;3.83;2.30;;;;;;;18.64;54.87;98767.63;5072222;28;20209;-69
2022/08/10 05:20:16;;;;;;;2.87;2.23;;;;;;;18.70;54.23;98775.50;5072002;28;20220;-68
2022/08/10 05:22:45;;;;;;;2.80;2.10;;;;;;;18.85;53.47;98775.66;5071774;28;20558;-68
2022/08/10 05:25:17;;;;;;;7.70;2.53;;;;;;;18.88;53.70;98771.63;5073647;28;20208;-68
2022/08/10 05:27:44;;;;;;;4.80;2.20;;;;;;;18.91;53.57;98774.63;5076165;28;20272;-68
2022/08/10 05:30:17;;;;;;;5.10;2.17;;;;;;;18.90;53.41;98786.47;5075608;28;20802;-68
2022/08/10 05:32:43;;;;;;;3.23;2.47;;;;;;;18.87;53.57;98772.72;5075925;28;20209;-68
2022/08/10 05:35:10;;;;;;;4.33;2.33;;;;;;;18.89;53.61;98776.78;5075728;28;20224;-68
2022/08/10 05:37:38;;;;;;;6.87;2.27;;;;;;;18.83;53.32;98777.78;5075444;28;20797;-69
2022/08/10 05:40:06;;;;;;;2.67;2.30;;;;;;;18.77;53.82;98783.41;5076216;28;20283;-69
2022/08/10 05:42:33;;;;;;;3.20;2.00;;;;;;;18.90;53.37;98782.97;5075302;28;20258;-68
2022/08/10 05:45:00;;;;;;;4.43;2.37;;;;;;;19.06;53.09;98780.19;5076082;28;20291;-68
2022/08/10 05:47:27;;;;;;;5.07;2.50;;;;;;;19.07;53.03;98773.72;5076159;28;20210;-68
2022/08/10 05:49:54;;;;;;;3.17;2.00;;;;;;;18.99;52.91;98782.25;5075461;28;20315;-68
2022/08/10 05:52:21;;;;;;;2.27;2.07;;;;;;;19.25;52.76;98781.47;5075588;28;20229;-68
2022/08/10 05:54:48;;;;;;;4.20;2.30;;;;;;;19.32;52.66;98779.34;5076081;28;20211;-68
2022/08/10 05:57:16;;;;;;;5.97;2.47;;;;;;;19.48;52.10;98779.50;5075069;28;20236;-68
2022/08/10 05:59:47;;;;;;;4.10;2.33;;;;;;;19.52;52.00;98790.31;5075642;28;20228;-68
2022/08/10 06:02:53;;;;;;;7.03;2.70;;;;;;;19.62;52.08;98786.06;5074367;28;20181;-68
2022/08/10 06:05:24;;;;;;;6.73;2.30;;;;;;;19.68;51.67;98775.84;5021663;28;20205;-68
2022/08/10 06:08:10;;;;;;;9.90;2.60;;;;;;;19.70;51.63;98783.69;5068427;28;20209;-68
2022/08/10 06:10:38;;;;;;;9.53;2.30;;;;;;;19.95;51.23;98785.75;5075302;28;20235;-68
2022/08/10 06:15:53;;;;;;;9.13;2.50;;;;;;;20.27;50.99;98784.59;5075246;28;20631;-69
2022/08/10 06:18:20;;;;;;;4.80;2.17;;;;;;;20.54;50.07;98784.44;5075058;28;20697;-69
2022/08/10 06:20:47;;;;;;;6.53;1.83;;;;;;;20.70;48.13;98780.72;5074651;28;20711;-69
2022/08/10 06:23:14;;;;;;;3.77;1.53;;;;;;;20.82;47.65;98784.78;5075814;28;20208;-69
2022/08/10 06:25:40;;;;;;;3.97;1.70;;;;;;;20.90;47.24;98783.44;5075552;28;20204;-69
2022/08/10 06:28:11;;;;;;;4.53;2.10;;;;;;;21.07;46.80;98784.06;5075419;28;20591;-68
2022/08/10 06:30:39;;;;;;;5.73;1.93;;;;;;;21.19;46.13;98787.28;5074004;28;20589;-69
2022/08/10 06:33:08;;;;;;;2.17;1.40;;;;;;;21.20;46.49;98783.53;5074966;28;20231;-69
2022/08/10 06:35:37;;;;;;;5.20;1.70;;;;;;;21.21;46.18;98788.66;5074861;28;20232;-69
2022/08/10 06:38:06;;;;;;;3.37;1.67;;;;;;;21.32;45.85;98786.78;5072797;28;20295;-69
2022/08/10 06:40:39;;;;;;;3.27;1.70;;;;;;;21.24;46.20;98788.13;5074549;28;20228;-69
2022/08/10 06:43:09;;;;;;;2.50;1.67;;;;;;;21.20;46.63;98788.94;5074780;28;20559;-69
2022/08/10 06:45:41;;;;;;;6.73;2.13;;;;;;;21.22;46.66;98786.78;5074995;28;20208;-69
2022/08/10 06:48:24;;;;;;;4.27;1.80;;;;;;;21.27;46.49;98786.78;5075579;28;20279;-69
2022/08/10 06:51:16;;;;;;;2.37;1.80;;;;;;;21.56;45.84;98782.47;5074418;28;20196;-69
2022/08/10 06:53:48;;;;;;;5.27;1.90;;;;;;;21.50;46.20;98778.94;5071299;28;20212;-69
2022/08/10 06:56:19;;;;;;;3.70;1.80;;;;;;;21.44;45.71;98787.31;5074554;28;20221;-69
2022/08/10 06:58:58;;;;;;;3.80;1.63;;;;;;;21.69;46.05;98787.28;5073189;28;20229;-69
2022/08/10 07:01:30;;;;;;;2.37;1.80;;;;;;;21.67;46.37;98784.06;5074447;28;20227;-69
2022/08/10 07:04:44;;;;;;;3.93;1.77;;;;;;;21.82;46.27;98784.06;5074456;28;20242;-69
2022/08/10 07:07:15;;;;;;;2.13;1.83;;;;;;;21.99;45.66;98777.28;5074174;28;20291;-69
2022/08/10 07:09:43;;;;;;;1.77;1.63;;;;;;;21.98;44.43;98783.75;5074768;28;20326;-69
2022/08/10 07:12:11;;;;;;;2.47;1.67;;;;;;;22.24;44.80;98779.91;5074217;28;20691;-69
2022/08/10 07:14:41;;;;;;;4.87;1.43;;;;;;;22.25;43.53;98781.50;5074184;28;20216;-69
2022/08/10 07:17:12;;;;;;;2.63;1.70;;;;;;;22.19;43.36;98781.81;5074402;28;20295;-69
2022/08/10 07:19:41;;;;;;;3.60;1.50;;;;;;;22.42;42.61;98782.00;5074055;28;20239;-69
2022/08/10 07:22:09;;;;;;;2.23;1.40;;;;;;;22.40;42.97;98783.38;5074129;28;20654;-69
2022/08/10 07:24:38;;;;;;;4.50;1.43;;;;;;;22.53;42.77;98778.19;5072757;28;20632;-69
2022/08/10 07:27:06;;;;;;;1.67;1.47;;;;;;;22.74;42.03;98779.69;5074212;28;20300;-69
2022/08/10 07:29:34;;;;;;;2.70;1.53;;;;;;;22.80;42.13;98775.06;5074056;28;20221;-69
2022/08/10 07:32:02;;;;;;;1.43;1.33;;;;;;;22.82;41.35;98772.88;5073871;28;20228;-69
2022/08/10 07:34:31;;;;;;;2.73;1.67;;;;;;;22.79;41.33;98771.53;5074085;28;20295;-69
2022/08/10 07:37:04;;;;;;;4.40;1.87;;;;;;;22.90;42.02;98766.88;5073756;28;20296;-69
2022/08/10 07:39:33;;;;;;;1.97;1.33;;;;;;;23.00;41.65;98773.03;5072175;28;20311;-70
2022/08/10 07:42:01;;;;;;;3.47;1.73;;;;;;;23.03;41.34;98772.50;5072849;28;20197;-69
2022/08/10 07:44:30;;;;;;;1.95;1.50;;;;;;;23.22;41.23;98772.66;5072600;28;20212;-69
2022/08/10 07:47:02;;;;;;;5.03;1.60;;;;;;;23.33;40.53;98775.00;5074011;28;20208;-69
2022/08/10 07:49:35;;;;;;;2.67;1.50;;;;;;;23.31;40.32;98777.19;5073090;28;20225;-69
2022/08/10 07:52:06;;;;;;;2.38;1.50;;;;;;;23.30;40.77;98772.03;5072656;28;20212;-69
2022/08/10 07:54:47;;;;;;;3.63;1.48;;;;;;;23.44;39.63;98773.03;5073784;28;20197;-69
2022/08/10 07:57:25;;;;;;;4.50;1.67;;;;;;;23.48;39.69;98768.66;5073587;28;20660;-69
2022/08/10 07:59:56;;;;;;;1.83;1.50;;;;;;;23.71;40.13;98773.31;5073647;28;20224;-69
2022/08/10 08:02:34;;;;;;;5.35;1.50;;;;;;;23.80;39.24;98777.03;5073669;28;20276;-70
2022/08/10 08:05:06;;;;;;;2.28;1.60;;;;;;;23.77;39.38;98772.16;5074273;28;20279;-70
2022/08/10 08:07:34;;;;;;;1.73;1.42;;;;;;;23.89;39.09;98767.16;5073549;28;20311;-70
2022/08/10 08:10:02;;;;;;;3.17;1.40;;;;;;;23.89;39.31;98764.44;5072011;28;20227;-69
2022/08/10 08:12:31;;;;;;;3.70;1.70;;;;;;;24.11;39.38;98770.22;5072628;28;20217;-69
2022/08/10 08:14:59;;;;;;;3.35;1.60;;;;;;;24.12;38.99;98759.06;5073319;28;20203;-69
2022/08/10 08:17:26;;;;;;;3.08;1.50;;;;;;;24.06;38.92;98764.84;5073081;28;20299;-69
2022/08/10 08:19:57;;;;;;;1.85;1.60;;;;;;;24.28;38.74;98762.41;5073230;28;20247;-70
2022/08/10 08:22:25;;;;;;;6.00;1.85;;;;;;;24.28;38.38;98767.84;5073395;28;20652;-70
2022/08/10 08:24:54;;;;;;;3.55;1.63;;;;;;;24.18;37.99;98768.78;5073640;28;20201;-69
2022/08/10 08:27:23;;;;;;;2.90;1.48;;;;;;;24.44;38.01;98772.00;5073540;28;20296;-69
2022/08/10 08:29:51;;;;;;;3.03;1.58;;;;;;;24.60;37.61;98771.53;5073044;28;20770;-70
2022/08/10 08:32:22;;;;;;;2.25;1.33;;;;;;;24.69;37.54;98769.78;5073160;28;20234;-70
2022/08/10 08:34:57;;;;;;;1.85;1.45;;;;;;;24.75;37.09;98757.75;5073348;28;20299;-69
2022/08/10 08:37:29;;;;;;;1.92;1.60;;;;;;;24.82;36.77;98771.78;5073372;28;20583;-69
2022/08/10 08:39:56;;;;;;;2.88;1.50;;;;;;;24.90;36.71;98773.84;5072163;28;20220;-69
2022/08/10 08:42:38;;;;;;;1.65;1.27;;;;;;;25.07;36.32;98776.06;5074207;28;20291;-70
2022/08/10 08:45:23;;;;;;;1.92;1.52;;;;;;;25.03;36.27;98773.13;5072697;28;20710;-70
2022/08/10 08:48:08;;;;;;;1.95;1.55;;;;;;;24.95;36.21;98767.50;5073221;28;20239;-70
2022/08/10 08:50:40;;;;;;;3.13;1.65;;;;;;;25.21;35.28;98771.47;5073136;28;20225;-70
2022/08/10 08:53:10;;;;;;;3.72;1.58;;;;;;;25.26;34.67;98774.97;5073140;28;20232;-69
2022/08/10 08:55:45;;;;;;;3.08;1.63;;;;;;;25.33;34.35;98769.94;5073242;28;20299;-70
2022/08/10 08:58:13;;;;;;;3.45;1.50;;;;;;;25.37;34.80;98764.75;5072955;28;20192;-70
2022/08/10 09:00:58;;;;;;;2.75;1.40;;;;;;;25.53;33.70;98766.91;5075267;28;20224;-70
2022/08/10 09:03:46;;;;;;;3.20;1.60;;;;;;;25.48;33.78;98763.44;5077065;28;20196;-70
2022/08/10 09:06:24;;;;;;;2.88;1.50;;;;;;;25.63;33.73;98760.47;5076618;28;20551;-70
2022/08/10 09:09:08;;;;;;;2.67;1.40;;;;;;;25.67;33.12;98762.31;5075908;28;20234;-70
2022/08/10 09:11:53;;;;;;;12.80;2.72;;;;;;;25.91;32.46;98756.69;5076721;28;20208;-70
2022/08/10 09:14:35;;;;;;;2.97;1.73;;;;;;;25.90;31.90;98757.78;5076628;28;20212;-70
2022/08/10 09:17:22;;;;;;;6.57;1.40;;;;;;;25.84;31.88;98759.00;5076637;28;20193;-70
2022/08/10 09:20:02;;;;;;;3.03;1.60;;;;;;;25.96;31.74;98745.75;5076934;28;20310;-70
2022/08/10 09:22:43;;;;;;;3.13;1.90;;;;;;;26.27;32.17;98753.00;5076907;28;20200;-70
2022/08/10 09:25:18;;;;;;;2.72;1.40;;;;;;;26.29;30.60;98747.25;5076598;28;20203;-70
2022/08/10 09:27:46;;;;;;;1.42;1.30;;;;;;;26.33;31.04;98737.34;5076283;28;20654;-70
2022/08/10 09:30:30;;;;;;;2.67;1.67;;;;;;;26.50;30.54;98730.16;5076394;28;20252;-70
2022/08/10 09:33:05;;;;;;;4.22;1.58;;;;;;;26.40;30.59;98738.56;5075865;28;20212;-70
2022/08/10 09:35:53;;;;;;;1.48;1.20;;;;;;;26.58;30.44;98731.38;5076084;28;20622;-70
2022/08/10 09:38:36;;;;;;;2.35;1.30;;;;;;;26.79;29.85;98721.66;5075192;28;20204;-70
2022/08/10 09:41:27;;;;;;;3.42;1.40;;;;;;;26.89;30.13;98729.59;5076497;28;20200;-70
2022/08/10 09:44:06;;;;;;;2.17;1.50;;;;;;;27.29;29.81;98725.13;5076047;28;20295;-70
2022/08/10 09:47:01;;;;;;;1.95;1.60;;;;;;;27.45;28.71;98740.81;5074926;28;20201;-70
2022/08/10 09:49:37;;;;;;;2.75;1.50;;;;;;;27.14;26.37;98734.47;5076135;28;20239;-70
2022/08/10 09:52:27;;;;;;;3.72;1.50;;;;;;;27.30;26.02;98729.47;5075875;28;20220;-70
2022/08/10 09:55:11;;;;;;;1.50;1.40;;;;;;;27.51;25.86;98728.66;5076385;28;20558;-70
2022/08/10 09:58:07;;;;;;;5.05;1.40;;;;;;;27.78;25.34;98733.94;5074659;28;20185;-70
2022/08/10 10:00:40;;;;;;;2.47;1.13;;;;;;;27.54;25.85;98721.75;5075864;28;20252;-70
2022/08/10 10:03:25;;;;;;;2.50;1.10;;;;;;;27.58;26.04;98715.34;5075887;28;20212;-70
2022/08/10 10:05:54;;;;;;;1.38;1.27;;;;;;;27.31;25.51;98726.41;5076024;28;20284;-71
2022/08/10 10:08:53;;;;;;;3.50;1.35;;;;;;;27.48;26.00;98726.53;5076254;28;20586;-70
2022/08/10 10:11:27;;;;;;;3.15;1.33;;;;;;;27.45;24.54;98724.41;5063846;28;20747;-70
2022/08/10 10:14:12;;;;;;;2.95;1.38;;;;;;;27.91;24.74;98718.59;5058143;28;20225;-70
2022/08/10 10:16:52;;;;;;;1.67;1.45;;;;;;;27.83;25.46;98727.56;5075860;28;20334;-70
2022/08/10 10:19:43;;;;;;;4.90;1.60;;;;;;;28.06;25.63;98724.47;5075670;28;20256;-70
2022/08/10 10:22:25;;;;;;;3.00;1.52;;;;;;;28.29;25.66;98723.25;5075687;28;20280;-69
2022/08/10 10:24:59;;;;;;;1.52;1.30;;;;;;;27.98;25.46;98717.03;5075686;28;20192;-69
2022/08/10 10:27:39;;;;;;;1.63;1.50;;;;;;;28.06;25.70;98720.91;5075615;28;20192;-69
2022/08/10 10:30:10;;;;;;;1.67;1.13;;;;;;;28.00;25.73;98714.78;5075256;28;20224;-70
2022/08/10 10:32:58;;;;;;;3.10;1.38;;;;;;;28.07;26.20;98720.59;5075282;28;20307;-70
2022/08/10 10:35:50;;;;;;;2.17;1.55;;;;;;;27.93;26.13;98708.97;5074954;28;20284;-69
2022/08/10 10:38:21;;;;;;;4.18;1.52;;;;;;;27.66;26.87;98725.53;5075176;28;20189;-70
2022/08/10 10:41:26;;;;;;;3.13;1.38;;;;;;;27.57;27.10;98715.69;5075520;28;20234;-69
2022/08/10 10:43:55;;;;;;;1.73;1.40;;;;;;;27.85;26.18;98711.66;5073891;28;20181;-70
2022/08/10 10:46:48;;;;;;;2.83;1.38;;;;;;;27.90;26.49;98709.59;5075038;28;20205;-70
2022/08/10 10:49:30;;;;;;;1.38;1.27;;;;;;;27.89;26.61;98699.00;5066338;28;20220;-70
2022/08/10 10:52:14;;;;;;;2.28;1.40;;;;;;;27.74;26.81;98704.81;5075160;28;20231;-70
2022/08/10 10:55:11;;;;;;;2.58;1.30;;;;;;;27.87;26.95;98693.84;5073697;28;20663;-70
2022/08/10 10:57:51;;;;;;;2.03;1.45;;;;;;;28.28;26.72;98696.22;5074644;28;20192;-70
2022/08/10 11:00:20;;;;;;;1.55;1.45;;;;;;;28.30;25.65;98696.72;5073473;28;20311;-70
2022/08/10 11:03:08;;;;;;;1.63;1.20;;;;;;;28.40;24.99;98678.09;5073293;28;20200;-70
2022/08/10 11:05:49;;;;;;;2.45;1.20;;;;;;;28.49;24.58;98680.84;5075255;28;20279;-70
2022/08/10 11:08:23;;;;;;;1.45;1.33;;;;;;;28.54;24.74;98689.72;5074673;28;20189;-69
2022/08/10 11:11:02;;;;;;;3.42;1.50;;;;;;;28.55;24.72;98687.78;5074676;28;20201;-69
2022/08/10 11:14:04;;;;;;;3.33;1.27;;;;;;;28.33;24.48;98687.84;5074087;28;20323;-70
2022/08/10 11:17:11;;;;;;;1.40;1.30;;;;;;;28.24;24.86;98676.09;5074830;28;20192;-70
2022/08/10 11:19:52;;;;;;;1.50;1.40;;;;;;;28.55;24.74;98685.03;5074196;28;20794;-70
2022/08/10 11:22:32;;;;;;;1.75;1.45;;;;;;;28.50;25.37;98675.06;5074248;28;20195;-70
2022/08/10 11:25:08;;;;;;;2.92;1.48;;;;;;;28.32;25.22;98673.38;5074499;28;20242;-70
2022/08/10 11:27:55;;;;;;;2.97;1.20;;;;;;;28.10;25.85;98675.41;5072928;28;20287;-70
2022/08/10 11:31:00;;;;;;;2.45;1.65;;;;;;;27.95;25.49;98668.47;5073886;28;20593;-70
2022/08/10 11:33:56;;;;;;;1.90;1.20;;;;;;;28.07;25.53;98668.66;5074347;28;20299;-70
2022/08/10 11:36:41;;;;;;;2.78;1.50;;;;;;;28.17;25.51;98671.09;5072938;28;20535;-70
2022/08/10 11:39:15;;;;;;;1.63;1.33;;;;;;;28.12;25.57;98667.72;5073838;28;20664;-70
2022/08/10 11:41:45;;;;;;;2.10;1.38;;;;;;;28.23;25.94;98686.25;5073871;28;20279;-70
2022/08/10 11:44:35;;;;;;;1.52;1.48;;;;;;;27.87;25.96;98676.63;5073685;28;20288;-70
2022/08/10 11:47:22;;;;;;;2.17;1.50;;;;;;;27.95;26.37;98681.31;5074002;28;20195;-70
2022/08/10 11:50:01;;;;;;;2.45;1.45;;;;;;;27.81;25.95;98675.94;5073950;28;20239;-70
2022/08/10 11:52:37;;;;;;;1.63;1.30;;;;;;;27.90;25.63;98663.13;5073903;28;20222;-70
2022/08/10 11:55:13;;;;;;;1.60;1.50;;;;;;;27.91;25.86;98670.22;5072863;28;20242;-70
2022/08/10 11:57:41;;;;;;;2.58;1.50;;;;;;;27.92;25.90;98658.16;5073878;28;20184;-70
2022/08/10 12:00:07;;;;;;;2.33;1.40;;;;;;;28.32;25.90;98662.44;5072431;28;20232;-70
2022/08/10 12:02:41;;;;;;;3.15;1.45;;;;;;;28.62;25.66;98667.00;5074256;28;20201;-70
2022/08/10 12:05:10;;;;;;;3.72;1.40;;;;;;;28.73;25.55;98673.78;5073514;28;20608;-70
2022/08/10 12:07:47;;;;;;;1.30;1.20;;;;;;;28.50;25.51;98658.66;5073720;28;20211;-70
2022/08/10 12:10:14;;;;;;;2.65;1.40;;;;;;;28.69;25.05;98659.13;5073647;28;20224;-70